TAF Text Data
IDs:
Format:
Raw Decoded Include METAR

Data at: 0251 UTC 19 Oct 2021

KHRL 182320Z 1900/1924 10009KT P6SM FEW250
  FM190200 VRB04KT P6SM FEW250
  TEMPO 1910/1914 5SM BR
  FM191500 15008KT P6SM SCT035 SCT250
  FM191800 15010KT P6SM BKN250